createdAt,value
2022-12-11T00:01:32.342Z,24.08
2022-12-11T00:04:35.931Z,22.80
2022-12-11T00:07:40.241Z,21.80
2022-12-11T00:10:50.152Z,20.02
2022-12-11T00:13:53.691Z,21.53
2022-12-11T00:16:56.680Z,18.75
2022-12-11T00:19:59.411Z,21.33
2022-12-11T00:23:04.992Z,18.40
2022-12-11T00:26:14.302Z,15.02
2022-12-11T00:29:17.262Z,25.50
2022-12-11T00:32:20.296Z,16.83
2022-12-11T00:35:23.323Z,17.55
2022-12-11T00:38:26.031Z,18.17
2022-12-11T00:41:28.995Z,17.58
2022-12-11T00:44:31.841Z,16.50
2022-12-11T00:47:34.930Z,21.33
2022-12-11T00:50:38.347Z,22.85
2022-12-11T00:53:41.289Z,25.00
2022-12-11T00:56:44.195Z,24.50
2022-12-11T00:59:47.168Z,24.80
2022-12-11T01:02:50.487Z,22.00
2022-12-11T01:05:56.601Z,26.77
2022-12-11T01:09:17.840Z,20.65
2022-12-11T01:12:20.989Z,21.15
2022-12-11T01:15:29.268Z,26.53
2022-12-11T01:18:34.450Z,21.50
2022-12-11T01:21:37.202Z,20.90
2022-12-11T01:24:41.831Z,25.58
2022-12-11T01:27:44.480Z,20.42
2022-12-11T01:30:47.620Z,21.80
2022-12-11T01:33:50.366Z,17.70
2022-12-11T01:36:53.351Z,17.73
2022-12-11T01:39:56.089Z,22.02
2022-12-11T01:42:59.089Z,22.55
2022-12-11T01:46:02.025Z,23.13
2022-12-11T01:49:09.425Z,20.23
2022-12-11T01:52:16.467Z,24.63
2022-12-11T01:55:20.695Z,17.02
2022-12-11T01:58:32.431Z,20.15
2022-12-11T02:01:55.413Z,15.67
2022-12-11T02:04:58.356Z,23.25
2022-12-11T02:08:03.645Z,20.50
2022-12-11T02:11:11.076Z,20.98
2022-12-11T02:14:53.801Z,20.92
2022-12-11T02:18:11.460Z,25.93
2022-12-11T02:21:29.282Z,17.35
2022-12-11T02:24:51.683Z,20.37
2022-12-11T02:28:17.585Z,17.90
2022-12-11T02:31:40.414Z,24.20
2022-12-11T02:35:09.668Z,14.87
2022-12-11T02:38:17.995Z,23.38
2022-12-11T02:41:22.376Z,25.62
2022-12-11T02:44:30.557Z,19.33
2022-12-11T02:47:34.989Z,21.85
2022-12-11T02:50:42.634Z,18.20
2022-12-11T02:53:46.676Z,16.45
2022-12-11T02:57:19.176Z,17.15
2022-12-11T03:00:22.057Z,22.65
2022-12-11T03:03:25.311Z,20.48
2022-12-11T03:06:40.255Z,16.73
2022-12-11T03:09:45.791Z,19.48
2022-12-11T03:12:53.887Z,20.80
2022-12-11T03:16:07.457Z,19.52
2022-12-11T03:19:38.213Z,20.13
2022-12-11T03:22:51.363Z,17.08
2022-12-11T03:26:03.683Z,15.07
2022-12-11T03:29:24.954Z,11.75
2022-12-11T03:32:42.410Z,15.93
2022-12-11T03:35:51.211Z,12.83
2022-12-11T03:38:59.251Z,15.25
2022-12-11T03:42:06.120Z,15.50
2022-12-11T03:45:10.195Z,14.15
2022-12-11T03:48:15.091Z,16.33
2022-12-11T03:51:18.559Z,12.30
2022-12-11T03:54:23.243Z,12.50
2022-12-11T03:57:31.150Z,17.15
2022-12-11T04:00:34.334Z,13.50
2022-12-11T04:03:38.093Z,13.80
2022-12-11T04:06:41.639Z,15.03
2022-12-11T04:09:44.613Z,10.65
2022-12-11T04:12:47.237Z,12.63
2022-12-11T04:15:50.303Z,11.12
2022-12-11T04:19:11.613Z,11.60
2022-12-11T04:22:35.410Z,11.68
2022-12-11T04:25:39.185Z,14.02
2022-12-11T04:28:43.636Z,12.43
2022-12-11T04:31:46.338Z,11.80
2022-12-11T04:34:50.943Z,11.97
2022-12-11T04:37:53.781Z,13.10
2022-12-11T04:41:01.518Z,7.75
2022-12-11T04:44:05.779Z,10.48
2022-12-11T04:47:08.919Z,11.55
2022-12-11T04:50:14.654Z,8.40
2022-12-11T04:53:18.428Z,9.32
2022-12-11T04:56:23.070Z,10.70
2022-12-11T04:59:26.186Z,11.82
2022-12-11T05:02:29.039Z,8.95
2022-12-11T05:05:32.096Z,11.00
2022-12-11T05:08:36.673Z,11.85
2022-12-11T05:11:42.209Z,11.18
2022-12-11T05:14:44.952Z,11.48
2022-12-11T05:17:47.933Z,9.33
2022-12-11T05:20:59.447Z,9.05
2022-12-11T05:24:03.395Z,10.93
2022-12-11T05:27:08.426Z,8.23
2022-12-11T05:30:11.709Z,10.55
2022-12-11T05:33:14.652Z,12.63
2022-12-11T05:36:32.458Z,10.68
2022-12-11T05:39:35.143Z,10.88
2022-12-11T05:42:39.262Z,8.63
2022-12-11T05:45:41.921Z,9.90
2022-12-11T05:48:48.555Z,8.83
2022-12-11T05:51:51.241Z,11.52
2022-12-11T05:54:54.273Z,8.57
2022-12-11T05:57:56.855Z,7.97
2022-12-11T06:01:00.016Z,9.95
2022-12-11T06:04:05.544Z,9.87
2022-12-11T06:07:10.881Z,7.12
2022-12-11T06:10:14.262Z,5.30
2022-12-11T06:13:17.822Z,9.23
2022-12-11T06:16:22.041Z,5.32
2022-12-11T06:19:24.712Z,7.70
2022-12-11T06:22:27.679Z,9.07
2022-12-11T06:25:31.015Z,8.93
2022-12-11T06:28:34.062Z,7.50
2022-12-11T06:31:36.820Z,8.65
2022-12-11T06:34:42.192Z,9.73
2022-12-11T06:37:44.834Z,8.68
2022-12-11T06:40:56.186Z,7.10
2022-12-11T06:43:58.806Z,7.25
2022-12-11T06:47:01.771Z,10.25
2022-12-11T06:50:05.114Z,7.13
2022-12-11T06:53:08.528Z,7.55
2022-12-11T06:56:15.946Z,8.48
2022-12-11T06:59:19.187Z,9.50
2022-12-11T07:02:22.015Z,6.97
2022-12-11T07:05:25.123Z,8.40
2022-12-11T07:08:29.893Z,8.23
2022-12-11T07:11:36.732Z,5.65
2022-12-11T07:14:39.411Z,7.40
2022-12-11T07:17:43.391Z,6.37
2022-12-11T07:20:46.207Z,7.57
2022-12-11T07:23:50.139Z,7.07
2022-12-11T07:26:53.165Z,7.28
2022-12-11T07:29:56.301Z,8.35
2022-12-11T07:32:59.023Z,6.37
2022-12-11T07:36:03.850Z,6.00
2022-12-11T07:39:07.850Z,7.60
2022-12-11T07:42:10.858Z,7.45
2022-12-11T07:45:14.344Z,6.60
2022-12-11T07:48:18.613Z,6.57
2022-12-11T07:51:30.690Z,5.97
2022-12-11T07:54:33.700Z,8.50
2022-12-11T07:57:36.368Z,8.13
2022-12-11T08:00:39.355Z,8.55
2022-12-11T08:03:42.733Z,8.38
2022-12-11T08:06:45.460Z,5.00
2022-12-11T08:09:48.400Z,6.93
2022-12-11T08:12:51.194Z,7.40
2022-12-11T08:15:54.907Z,6.35
2022-12-11T08:18:58.656Z,8.65
2022-12-11T08:22:01.728Z,9.17
2022-12-11T08:25:05.901Z,5.97
2022-12-11T08:28:08.843Z,6.82
2022-12-11T08:31:13.543Z,6.93
2022-12-11T08:34:16.795Z,5.07
2022-12-11T08:37:20.559Z,8.03
2022-12-11T08:40:23.769Z,5.68
2022-12-11T08:43:26.538Z,8.20
2022-12-11T08:46:32.651Z,5.82
2022-12-11T08:49:42.648Z,8.45
2022-12-11T08:52:45.722Z,9.60
2022-12-11T08:55:48.398Z,6.15
2022-12-11T08:58:52.422Z,6.43
2022-12-11T09:01:56.351Z,7.68
2022-12-11T09:04:59.289Z,9.98
2022-12-11T09:08:01.959Z,10.30
2022-12-11T09:11:11.219Z,9.57
2022-12-11T09:14:13.945Z,9.23
2022-12-11T09:17:19.634Z,8.57
2022-12-11T09:20:22.293Z,9.88
2022-12-11T09:23:25.360Z,10.97
2022-12-11T09:26:30.374Z,11.85
2022-12-11T09:29:33.447Z,13.35
2022-12-11T09:32:36.241Z,12.98
2022-12-11T09:35:39.990Z,16.37
2022-12-11T09:38:45.440Z,12.50
2022-12-11T09:42:10.613Z,8.95
2022-12-11T09:45:15.662Z,8.32
2022-12-11T09:48:22.539Z,11.88
2022-12-11T09:51:32.307Z,11.60
2022-12-11T09:54:37.070Z,10.17
2022-12-11T09:57:48.553Z,11.60
2022-12-11T10:01:09.500Z,11.00
2022-12-11T10:04:47.588Z,10.65
2022-12-11T10:08:14.853Z,8.50
2022-12-11T10:11:42.815Z,9.30
2022-12-11T10:15:12.764Z,7.53
2022-12-11T10:18:21.709Z,7.72
2022-12-11T10:21:26.703Z,9.73
2022-12-11T10:25:10.716Z,7.95
2022-12-11T10:28:17.072Z,7.50
2022-12-11T10:31:39.119Z,9.13
2022-12-11T10:34:47.997Z,7.93
2022-12-11T10:37:52.577Z,9.65
2022-12-11T10:40:59.511Z,9.15
2022-12-11T10:44:16.328Z,7.60
2022-12-11T10:47:19.109Z,6.55
2022-12-11T10:50:26.292Z,8.55
2022-12-11T10:53:30.629Z,10.10
2022-12-11T10:56:38.069Z,10.57
2022-12-11T10:59:43.463Z,10.57
2022-12-11T11:02:46.569Z,8.73
2022-12-11T11:05:50.869Z,8.35
2022-12-11T11:08:58.283Z,12.18
2022-12-11T11:12:07.410Z,11.38
2022-12-11T11:15:21.242Z,10.10
2022-12-11T11:18:27.219Z,11.52
2022-12-11T11:21:32.020Z,9.20
2022-12-11T11:24:54.002Z,7.12
2022-12-11T11:28:02.695Z,7.32
2022-12-11T11:31:09.102Z,9.10
2022-12-11T11:34:23.851Z,9.00
2022-12-11T11:37:33.219Z,9.35
2022-12-11T11:41:07.659Z,9.85
2022-12-11T11:44:19.127Z,9.98
2022-12-11T11:47:31.357Z,6.37
2022-12-11T11:50:36.607Z,10.10
2022-12-11T11:53:41.698Z,9.32
2022-12-11T11:56:45.333Z,10.20
2022-12-11T11:59:54.847Z,9.45
2022-12-11T12:03:01.572Z,10.40
2022-12-11T12:06:41.421Z,9.75
2022-12-11T12:09:57.704Z,11.57
2022-12-11T12:14:01.136Z,10.43
2022-12-11T12:17:10.015Z,10.27
2022-12-11T12:20:25.420Z,12.00
2022-12-11T12:23:43.767Z,12.02
2022-12-11T12:27:50.361Z,10.60
2022-12-11T12:31:08.858Z,12.40
2022-12-11T12:34:33.353Z,9.02
2022-12-11T12:37:47.422Z,11.67
2022-12-11T12:41:15.873Z,8.70
2022-12-11T12:44:22.567Z,11.35
2022-12-11T12:47:30.137Z,8.02
2022-12-11T12:50:43.966Z,10.07
2022-12-11T12:53:59.652Z,8.87
2022-12-11T12:57:04.478Z,10.20
2022-12-11T13:00:13.141Z,11.95
2022-12-11T13:03:20.456Z,11.05
2022-12-11T13:06:44.489Z,12.93
2022-12-11T13:10:03.867Z,9.40
2022-12-11T13:13:31.202Z,10.05
2022-12-11T13:16:41.442Z,8.75
2022-12-11T13:19:44.544Z,7.50
2022-12-11T13:23:18.101Z,7.20
2022-12-11T13:26:33.365Z,10.17
2022-12-11T13:29:42.280Z,9.02
2022-12-11T13:32:54.551Z,10.05
2022-12-11T13:36:24.102Z,9.63
2022-12-11T13:39:31.725Z,10.55
2022-12-11T13:42:44.471Z,7.30
2022-12-11T13:45:51.413Z,12.05
2022-12-11T13:49:01.349Z,9.05
2022-12-11T13:52:05.689Z,8.07
2022-12-11T13:55:24.505Z,8.00
2022-12-11T13:58:30.610Z,9.37
2022-12-11T14:01:35.656Z,9.00
2022-12-11T14:04:39.197Z,9.57
2022-12-11T14:07:57.379Z,10.65
2022-12-11T14:11:00.490Z,11.48
2022-12-11T14:14:07.077Z,9.43
2022-12-11T14:17:15.436Z,10.80
2022-12-11T14:20:25.875Z,9.77
2022-12-11T14:23:38.145Z,9.10
2022-12-11T14:26:49.938Z,13.73
2022-12-11T14:29:53.857Z,11.00
2022-12-11T14:33:05.376Z,13.43
2022-12-11T14:36:14.874Z,8.95
2022-12-11T14:39:25.575Z,7.57
2022-12-11T14:42:37.871Z,7.90
2022-12-11T14:45:44.928Z,8.20
2022-12-11T14:48:59.106Z,9.13
2022-12-11T14:52:04.682Z,9.63
2022-12-11T14:55:15.676Z,10.10
2022-12-11T14:58:23.995Z,7.45
2022-12-11T15:01:33.056Z,10.03
2022-12-11T15:04:36.746Z,10.82
2022-12-11T15:07:42.313Z,8.85
2022-12-11T15:11:00.202Z,12.70
2022-12-11T15:14:06.237Z,11.52
2022-12-11T15:17:14.718Z,11.23
2022-12-11T15:20:30.151Z,9.20
2022-12-11T15:23:47.162Z,14.13
2022-12-11T15:26:50.855Z,13.38
2022-12-11T15:29:54.296Z,13.97
2022-12-11T15:33:09.937Z,11.85
2022-12-11T15:36:30.874Z,11.45
2022-12-11T15:39:33.867Z,10.32
2022-12-11T15:42:40.837Z,13.25
2022-12-11T15:45:44.389Z,18.10
2022-12-11T15:48:51.132Z,13.62
2022-12-11T15:51:55.119Z,20.52
2022-12-11T15:54:58.189Z,13.27
2022-12-11T15:58:22.420Z,14.07
2022-12-11T16:01:25.912Z,14.00
2022-12-11T16:04:28.916Z,17.02
2022-12-11T16:07:32.945Z,15.68
2022-12-11T16:10:37.595Z,18.40
2022-12-11T16:13:40.569Z,18.10
2022-12-11T16:16:43.991Z,17.05
2022-12-11T16:19:46.951Z,13.85
2022-12-11T16:22:53.521Z,16.02
2022-12-11T16:25:56.324Z,21.95
2022-12-11T16:28:59.502Z,18.67
2022-12-11T16:32:02.780Z,14.50
2022-12-11T16:35:06.123Z,17.65
2022-12-11T16:38:10.271Z,10.43
2022-12-11T16:41:18.425Z,15.35
2022-12-11T16:44:23.277Z,15.80
2022-12-11T16:47:26.669Z,13.65
2022-12-11T16:50:30.182Z,12.70
2022-12-11T16:53:33.232Z,14.85
2022-12-11T16:56:36.411Z,11.88
2022-12-11T16:59:41.394Z,18.40
2022-12-11T17:02:44.167Z,12.10
2022-12-11T17:05:47.285Z,15.43
2022-12-11T17:08:51.261Z,15.73
2022-12-11T17:11:54.835Z,12.90
2022-12-11T17:14:57.882Z,20.33
2022-12-11T17:18:01.342Z,14.73
2022-12-11T17:21:09.297Z,19.95
2022-12-11T17:24:12.635Z,13.10
2022-12-11T17:27:17.010Z,11.60
2022-12-11T17:30:22.070Z,20.03
2022-12-11T17:33:25.990Z,17.37
2022-12-11T17:36:31.413Z,17.23
2022-12-11T17:39:42.475Z,17.12
2022-12-11T17:42:46.615Z,16.77
2022-12-11T17:45:57.645Z,14.43
2022-12-11T17:49:05.057Z,14.52
2022-12-11T17:52:08.673Z,18.15
2022-12-11T17:55:14.159Z,21.30
2022-12-11T17:58:20.658Z,16.65
2022-12-11T18:01:24.363Z,12.77
2022-12-11T18:04:29.252Z,18.40
2022-12-11T18:07:36.305Z,15.55
2022-12-11T18:10:40.958Z,13.27
2022-12-11T18:13:45.757Z,15.10
2022-12-11T18:16:49.839Z,15.52
2022-12-11T18:19:53.707Z,12.25
2022-12-11T18:22:59.778Z,12.93
2022-12-11T18:26:03.739Z,11.93
2022-12-11T18:29:09.030Z,13.77
2022-12-11T18:32:14.538Z,15.13
2022-12-11T18:35:19.923Z,11.82
2022-12-11T18:38:25.597Z,12.07
2022-12-11T18:41:29.783Z,11.88
2022-12-11T18:44:34.639Z,11.30
2022-12-11T18:47:40.846Z,17.42
2022-12-11T18:50:51.175Z,16.20
2022-12-11T18:53:55.547Z,12.65
2022-12-11T18:56:59.246Z,15.73
2022-12-11T19:00:24.276Z,11.70
2022-12-11T19:03:28.246Z,12.00
2022-12-11T19:06:36.317Z,17.33
2022-12-11T19:09:44.819Z,17.07
2022-12-11T19:12:56.064Z,13.05
2022-12-11T19:16:02.165Z,12.40
2022-12-11T19:19:16.277Z,10.40
2022-12-11T19:22:20.543Z,14.63
2022-12-11T19:25:25.069Z,12.90
2022-12-11T19:28:29.002Z,15.68
2022-12-11T19:31:33.840Z,14.63
2022-12-11T19:34:39.605Z,15.70
2022-12-11T19:37:45.613Z,10.40
2022-12-11T19:40:49.737Z,11.30
2022-12-11T19:43:55.487Z,10.48
2022-12-11T19:46:59.540Z,18.87
2022-12-11T19:50:04.847Z,12.88
2022-12-11T19:53:10.329Z,14.87
2022-12-11T19:56:16.448Z,13.85
2022-12-11T19:59:21.365Z,13.50
2022-12-11T20:02:27.521Z,14.25
2022-12-11T20:05:32.022Z,11.93
2022-12-11T20:08:45.688Z,10.43
2022-12-11T20:11:50.459Z,12.10
2022-12-11T20:14:53.953Z,14.23
2022-12-11T20:17:59.782Z,15.48
2022-12-11T20:21:11.960Z,13.20
2022-12-11T20:24:18.875Z,16.80
2022-12-11T20:27:23.108Z,12.35
2022-12-11T20:30:28.206Z,14.93
2022-12-11T20:33:33.683Z,9.90
2022-12-11T20:36:38.168Z,14.45
2022-12-11T20:39:44.340Z,13.05
2022-12-11T20:42:56.440Z,18.12
2022-12-11T20:46:02.843Z,11.17
2022-12-11T20:49:13.262Z,14.23
2022-12-11T20:52:19.065Z,14.60
2022-12-11T20:55:23.006Z,12.15
2022-12-11T20:58:26.761Z,11.87
2022-12-11T21:01:35.408Z,9.00
2022-12-11T21:04:46.810Z,10.68
2022-12-11T21:07:58.555Z,8.20
2022-12-11T21:11:09.069Z,10.00
2022-12-11T21:14:14.661Z,11.07
2022-12-11T21:17:18.100Z,9.02
2022-12-11T21:20:24.391Z,9.13
2022-12-11T21:23:28.508Z,10.13
2022-12-11T21:26:33.920Z,10.90
2022-12-11T21:29:36.872Z,11.45
2022-12-11T21:32:41.833Z,10.88
2022-12-11T21:35:45.659Z,8.52
2022-12-11T21:38:49.102Z,9.90
2022-12-11T21:41:51.877Z,5.15
2022-12-11T21:48:19.325Z,12.43
2022-12-11T21:51:25.291Z,7.82
2022-12-11T21:54:28.092Z,8.52
2022-12-11T21:57:31.144Z,6.25
2022-12-11T22:00:36.928Z,7.53
2022-12-11T22:03:39.981Z,9.88
2022-12-11T22:06:45.959Z,9.57
2022-12-11T22:09:48.993Z,12.90
2022-12-11T22:12:51.728Z,7.10
2022-12-11T22:15:55.321Z,8.83
2022-12-11T22:18:58.357Z,6.80
2022-12-11T22:22:01.280Z,11.05
2022-12-11T22:25:07.168Z,13.62
2022-12-11T22:28:10.207Z,8.43
2022-12-11T22:31:15.018Z,11.18
2022-12-11T22:34:20.532Z,8.18
2022-12-11T22:37:23.419Z,14.05
2022-12-11T22:40:27.005Z,8.27
2022-12-11T22:43:29.640Z,11.87
2022-12-11T22:46:32.643Z,7.05
2022-12-11T22:49:36.104Z,6.65
2022-12-11T22:52:39.709Z,12.23
2022-12-11T22:55:42.308Z,11.10
2022-12-11T22:58:47.153Z,10.38
2022-12-11T23:01:49.897Z,6.45
2022-12-11T23:04:53.003Z,11.12
2022-12-11T23:07:55.883Z,8.85
2022-12-11T23:10:58.936Z,8.65
2022-12-11T23:14:02.455Z,9.50
2022-12-11T23:17:05.446Z,9.70
2022-12-11T23:20:08.827Z,10.35
2022-12-11T23:23:11.905Z,8.80
2022-12-11T23:26:15.458Z,7.22
2022-12-11T23:29:18.479Z,10.57
2022-12-11T23:32:21.253Z,7.53
2022-12-11T23:35:24.145Z,6.80
2022-12-11T23:38:27.001Z,6.60
2022-12-11T23:41:29.955Z,8.93
2022-12-11T23:44:32.633Z,11.60
2022-12-11T23:47:35.695Z,8.43
2022-12-11T23:50:39.858Z,10.73
2022-12-11T23:53:43.535Z,8.35
2022-12-11T23:56:47.570Z,11.27
2022-12-11T23:59:50.569Z,11.98
